Time;durP1;ratioP1;P1;durP2;ratioP2;P2;SDS_P1;SDS_P2;PMS_P1;PMS_P2;Temp;Humidity;BMP_temperature;BMP_pressure;BME280_temperature;BME280_humidity;BME280_pressure;Samples;Min_cycle;Max_cycle;Signal;HPM_P1;HPM_P2
2022/04/22 00:00:39;;;;;;;27.98;19.63;;;9.90;99.90;;;;;;5089901;28;20032;-46
2022/04/22 00:03:08;;;;;;;30.98;20.13;;;9.90;99.90;;;;;;5089092;28;20131;-46
2022/04/22 00:05:34;;;;;;;36.22;22.40;;;9.90;99.90;;;;;;5089907;28;20024;-47
2022/04/22 00:08:00;;;;;;;30.10;21.35;;;9.90;99.90;;;;;;5089409;28;20028;-46
2022/04/22 00:10:26;;;;;;;31.48;21.33;;;9.90;99.90;;;;;;5089657;28;20477;-47
2022/04/22 00:12:51;;;;;;;27.52;19.83;;;9.90;99.90;;;;;;5088780;28;20028;-47
2022/04/22 00:15:17;;;;;;;28.35;19.95;;;9.90;99.90;;;;;;5089281;28;20477;-46
2022/04/22 00:17:43;;;;;;;33.65;21.95;;;9.90;99.90;;;;;;5087475;28;20027;-47
2022/04/22 00:20:10;;;;;;;30.50;19.98;;;9.90;99.90;;;;;;5089469;28;20055;-47
2022/04/22 00:22:42;;;;;;;28.67;20.30;;;9.90;99.90;;;;;;5078956;28;20055;-47
2022/04/22 00:25:10;;;;;;;24.65;18.45;;;9.90;99.90;;;;;;5085843;28;20059;-46
2022/04/22 00:27:37;;;;;;;34.85;20.10;;;9.90;99.90;;;;;;5089475;28;20024;-47
2022/04/22 00:30:08;;;;;;;27.05;19.60;;;9.80;99.90;;;;;;5089304;28;20054;-47
2022/04/22 00:32:34;;;;;;;24.75;17.73;;;9.80;99.90;;;;;;5088632;28;20051;-46
2022/04/22 00:35:00;;;;;;;27.08;17.80;;;9.80;99.90;;;;;;5089153;28;20056;-48
2022/04/22 00:37:26;;;;;;;26.95;17.65;;;9.80;99.90;;;;;;5089177;28;20028;-47
2022/04/22 00:39:51;;;;;;;29.65;17.38;;;9.70;99.90;;;;;;5089396;28;20028;-47
2022/04/22 00:42:17;;;;;;;23.38;16.10;;;9.70;99.90;;;;;;5088533;28;20043;-49
2022/04/22 00:44:42;;;;;;;22.00;15.13;;;9.70;99.90;;;;;;5089119;28;20485;-46
2022/04/22 00:47:08;;;;;;;22.13;14.50;;;9.70;99.90;;;;;;5089073;28;20020;-46
2022/04/22 00:49:34;;;;;;;18.25;14.18;;;9.70;99.90;;;;;;5088988;28;20473;-47
2022/04/22 00:52:01;;;;;;;20.90;13.70;;;9.70;99.90;;;;;;5081984;28;20069;-46
2022/04/22 00:54:27;;;;;;;21.10;13.00;;;9.70;99.90;;;;;;5080312;28;20016;-46
2022/04/22 00:56:53;;;;;;;21.63;13.30;;;9.70;99.90;;;;;;5089019;28;20073;-46
2022/04/22 00:59:19;;;;;;;19.98;12.70;;;9.60;99.90;;;;;;5087330;28;20027;-46
2022/04/22 01:01:44;;;;;;;17.00;13.00;;;9.60;99.90;;;;;;5088083;28;20036;-46
2022/04/22 01:09:47;;;;;;;20.23;10.65;;;9.50;99.90;;;;;;5087875;28;20443;-45
2022/04/22 01:12:13;;;;;;;18.83;11.63;;;9.50;99.90;;;;;;5088361;28;20099;-46
2022/04/22 01:14:39;;;;;;;22.52;12.23;;;9.50;99.90;;;;;;5088825;28;20416;-47
2022/04/22 01:17:05;;;;;;;18.42;11.20;;;9.50;99.90;;;;;;5088600;28;20020;-45
2022/04/22 01:19:31;;;;;;;14.32;9.65;;;9.50;99.90;;;;;;5088433;28;20039;-45
2022/04/22 01:21:57;;;;;;;14.52;9.15;;;9.60;99.90;;;;;;5069341;28;20071;-46
2022/04/22 01:24:23;;;;;;;11.13;7.35;;;9.50;99.90;;;;;;5074857;28;20021;-46
2022/04/22 01:26:49;;;;;;;13.70;7.20;;;9.40;99.90;;;;;;5068372;28;20067;-47
2022/04/22 01:29:15;;;;;;;9.23;6.03;;;9.30;99.90;;;;;;5071515;28;20028;-46
2022/04/22 01:31:43;;;;;;;16.48;7.03;;;9.30;99.90;;;;;;5071742;28;20024;-46
2022/04/22 01:34:09;;;;;;;9.48;6.65;;;9.20;99.90;;;;;;5071863;28;20020;-46
2022/04/22 01:36:35;;;;;;;10.88;6.72;;;9.20;99.90;;;;;;5072055;28;20035;-47
2022/04/22 01:39:00;;;;;;;10.75;6.10;;;9.20;99.90;;;;;;5072109;28;20027;-46
2022/04/22 01:41:27;;;;;;;10.07;5.53;;;9.20;99.90;;;;;;5070625;28;20035;-46
2022/04/22 01:43:53;;;;;;;8.20;5.85;;;9.20;99.90;;;;;;5061840;28;20541;-46
2022/04/22 01:46:19;;;;;;;8.52;5.32;;;9.10;99.90;;;;;;5051257;28;20056;-47
2022/04/22 01:48:44;;;;;;;9.82;5.30;;;9.10;99.90;;;;;;5060722;28;20100;-46
2022/04/22 01:51:11;;;;;;;9.45;4.70;;;9.00;99.90;;;;;;5060288;28;20111;-47
2022/04/22 01:53:36;;;;;;;9.98;5.05;;;9.00;99.90;;;;;;5072244;28;20031;-48
2022/04/22 01:56:04;;;;;;;12.80;4.53;;;9.00;99.90;;;;;;5061171;28;20104;-48
2022/04/22 01:58:29;;;;;;;8.63;4.75;;;9.00;99.90;;;;;;5062230;28;20056;-46
2022/04/22 02:00:55;;;;;;;10.30;4.28;;;8.90;99.90;;;;;;5060205;28;20290;-46
2022/04/22 02:03:20;;;;;;;11.77;4.00;;;8.90;99.90;;;;;;5059649;28;20102;-46
2022/04/22 02:05:46;;;;;;;8.88;3.95;;;8.80;99.90;;;;;;5063061;28;20530;-46
2022/04/22 02:08:12;;;;;;;7.38;3.70;;;8.80;99.90;;;;;;5061825;28;20025;-46
2022/04/22 02:10:38;;;;;;;10.85;4.40;;;8.70;99.90;;;;;;5060196;28;20017;-46
2022/04/22 02:13:05;;;;;;;7.15;3.92;;;8.70;99.90;;;;;;5061500;28;20061;-46
2022/04/22 02:15:30;;;;;;;6.95;3.80;;;8.70;99.90;;;;;;5062812;28;20036;-46
2022/04/22 02:17:56;;;;;;;7.30;3.80;;;8.70;99.90;;;;;;5061195;28;20450;-46
2022/04/22 02:20:22;;;;;;;6.97;4.20;;;8.60;99.90;;;;;;5059988;28;20087;-46
2022/04/22 02:22:47;;;;;;;8.27;3.58;;;8.60;99.90;;;;;;5065639;28;20029;-47
2022/04/22 02:25:13;;;;;;;11.88;3.92;;;8.60;99.90;;;;;;5062523;28;20390;-46
2022/04/22 02:30:25;;;;;;;8.95;3.92;;;8.60;99.90;;;;;;5061646;28;20024;-45
2022/04/22 02:32:51;;;;;;;7.05;3.38;;;8.60;99.90;;;;;;5060472;28;20461;-44
2022/04/22 02:35:21;;;;;;;9.98;4.47;;;8.60;99.90;;;;;;5062375;28;20075;-43
2022/04/22 02:37:51;;;;;;;6.60;3.70;;;8.60;99.90;;;;;;5057844;28;20029;-44
2022/04/22 02:45:47;;;;;;;9.43;3.60;;;8.40;99.90;;;;;;5063751;28;20055;-44
2022/04/22 02:48:12;;;;;;;8.80;4.00;;;8.40;99.90;;;;;;5060798;28;20020;-45
2022/04/22 02:50:38;;;;;;;10.15;4.43;;;8.40;99.90;;;;;;5062523;28;20120;-45
2022/04/22 02:53:03;;;;;;;7.13;4.65;;;8.40;99.90;;;;;;5065406;28;20020;-46
2022/04/22 02:55:30;;;;;;;6.43;4.13;;;8.30;99.90;;;;;;5063852;28;20473;-45
2022/04/22 02:57:59;;;;;;;6.38;3.50;;;8.30;99.90;;;;;;5065321;28;20021;-44
2022/04/22 03:00:25;;;;;;;8.13;3.90;;;8.30;99.90;;;;;;5070410;28;20044;-45
2022/04/22 03:02:52;;;;;;;8.50;4.35;;;8.20;99.90;;;;;;5070321;28;20021;-45
2022/04/22 03:05:18;;;;;;;12.38;4.63;;;8.10;99.90;;;;;;5070497;28;20017;-44
2022/04/22 03:07:43;;;;;;;7.47;4.50;;;8.20;99.90;;;;;;5070349;28;20051;-45
2022/04/22 03:10:09;;;;;;;7.95;4.40;;;8.20;99.90;;;;;;5070770;28;20046;-45
2022/04/22 03:12:34;;;;;;;8.82;4.28;;;8.10;99.90;;;;;;5070109;28;20013;-46
2022/04/22 03:15:01;;;;;;;6.63;4.28;;;8.10;99.90;;;;;;5069732;28;20036;-45
2022/04/22 03:17:27;;;;;;;8.98;4.05;;;8.00;99.90;;;;;;5070810;28;20017;-45
2022/04/22 03:19:53;;;;;;;8.10;3.97;;;8.00;99.90;;;;;;5070853;28;20020;-45
2022/04/22 03:22:19;;;;;;;6.78;4.25;;;8.00;99.90;;;;;;5076311;28;20021;-46
2022/04/22 03:24:44;;;;;;;7.47;4.00;;;8.00;99.90;;;;;;5074305;28;20048;-46
2022/04/22 03:27:10;;;;;;;6.40;3.78;;;8.00;99.90;;;;;;5070210;28;20028;-45
2022/04/22 03:29:37;;;;;;;7.43;4.03;;;7.90;99.90;;;;;;5070046;28;20032;-45
2022/04/22 03:32:03;;;;;;;8.52;4.13;;;7.90;99.90;;;;;;5068109;28;20032;-46
2022/04/22 03:34:28;;;;;;;9.38;4.90;;;7.80;99.90;;;;;;5070282;28;20031;-45
2022/04/22 03:36:54;;;;;;;14.15;5.20;;;7.80;99.90;;;;;;5069784;28;20021;-46
2022/04/22 03:39:20;;;;;;;8.15;5.03;;;7.80;99.90;;;;;;5069919;28;20035;-45
2022/04/22 03:41:46;;;;;;;8.20;4.40;;;7.80;99.90;;;;;;5069504;28;20032;-46
2022/04/22 03:44:11;;;;;;;6.82;4.30;;;7.80;99.90;;;;;;5069918;28;20028;-46
2022/04/22 03:46:37;;;;;;;8.05;4.88;;;7.70;99.90;;;;;;5069770;28;20052;-46
2022/04/22 03:49:04;;;;;;;7.35;4.57;;;7.60;99.90;;;;;;5070235;28;20029;-46
2022/04/22 03:51:31;;;;;;;7.32;3.85;;;7.70;99.90;;;;;;5069716;28;20107;-45
2022/04/22 03:53:56;;;;;;;9.07;4.57;;;7.70;99.90;;;;;;5079838;28;20525;-46
2022/04/22 03:59:06;;;;;;;9.27;4.45;;;7.60;99.90;;;;;;5089767;28;20050;-45
2022/04/22 04:01:32;;;;;;;6.85;4.13;;;7.60;99.90;;;;;;5071569;28;20123;-46
2022/04/22 04:03:58;;;;;;;12.00;4.95;;;7.50;99.90;;;;;;5065097;28;20101;-45
2022/04/22 04:06:24;;;;;;;11.00;4.78;;;7.50;99.90;;;;;;5065008;28;20070;-46
2022/04/22 04:17:04;;;;;;;9.90;4.75;;;7.30;99.90;;;;;;5068483;28;20063;-46
2022/04/22 04:24:58;;;;;;;8.18;4.82;;;7.10;99.90;;;;;;5053960;28;20039;-46
2022/04/22 04:27:23;;;;;;;8.88;4.72;;;7.10;99.90;;;;;;5066287;28;20016;-45
2022/04/22 04:29:49;;;;;;;11.73;6.40;;;7.00;99.90;;;;;;5069009;28;20042;-46
2022/04/22 04:32:17;;;;;;;13.30;5.18;;;7.10;99.90;;;;;;5068464;28;20070;-45
2022/04/22 04:34:44;;;;;;;6.75;4.57;;;7.00;99.90;;;;;;5068989;28;20023;-45
2022/04/22 04:37:09;;;;;;;6.63;4.45;;;7.00;99.90;;;;;;5066623;28;20059;-49
2022/04/22 04:39:35;;;;;;;11.55;5.63;;;6.90;99.90;;;;;;5059246;28;20494;-46
2022/04/22 04:42:02;;;;;;;10.82;4.95;;;7.00;99.90;;;;;;5056721;28;20447;-46
2022/04/22 04:44:28;;;;;;;11.32;5.28;;;7.00;99.90;;;;;;5060369;28;20079;-46
2022/04/22 04:46:54;;;;;;;14.57;5.72;;;6.90;99.90;;;;;;5057843;28;20028;-46
2022/04/22 04:49:19;;;;;;;9.60;5.75;;;6.90;99.90;;;;;;5059446;28;20021;-46
2022/04/22 04:51:45;;;;;;;15.60;6.45;;;6.90;99.90;;;;;;5062741;28;20626;-46
2022/04/22 04:54:10;;;;;;;10.82;5.97;;;7.00;99.90;;;;;;5059852;28;20155;-46
2022/04/22 04:56:36;;;;;;;11.95;5.88;;;6.80;99.90;;;;;;5066039;28;20060;-46
2022/04/22 04:59:01;;;;;;;13.75;4.95;;;6.80;99.90;;;;;;5063707;28;20094;-45
2022/04/22 05:01:27;;;;;;;9.85;5.85;;;6.90;99.90;;;;;;5058609;28;20025;-45
2022/04/22 05:03:52;;;;;;;14.48;6.80;;;6.90;99.90;;;;;;5056873;28;20025;-45
2022/04/22 05:06:19;;;;;;;11.23;5.72;;;7.00;99.90;;;;;;5060286;28;20486;-45
2022/04/22 05:08:45;;;;;;;14.98;6.25;;;7.00;99.90;;;;;;5057529;28;20498;-45
2022/04/22 05:11:10;;;;;;;10.35;5.45;;;7.10;99.90;;;;;;5061980;28;20086;-46
2022/04/22 05:13:36;;;;;;;14.18;5.30;;;7.00;99.90;;;;;;5067975;28;20021;-47
2022/04/22 05:16:02;;;;;;;12.05;6.07;;;6.90;99.90;;;;;;5068426;28;20402;-45
2022/04/22 05:18:27;;;;;;;12.45;6.22;;;6.90;99.90;;;;;;5064151;28;20351;-45
2022/04/22 05:20:53;;;;;;;13.25;6.30;;;6.90;99.90;;;;;;5058211;28;20033;-45
2022/04/22 05:23:18;;;;;;;11.30;6.30;;;6.80;99.90;;;;;;5058378;28;20021;-45
2022/04/22 05:25:44;;;;;;;15.13;6.93;;;6.90;99.90;;;;;;5055642;28;20028;-45
2022/04/22 05:28:09;;;;;;;11.32;6.60;;;6.90;99.90;;;;;;5055970;28;20021;-46
2022/04/22 05:33:19;;;;;;;15.95;6.72;;;7.10;99.90;;;;;;5047750;28;20108;-44
2022/04/22 05:35:45;;;;;;;13.50;6.47;;;7.00;99.90;;;;;;5049113;28;20477;-45
2022/04/22 05:38:10;;;;;;;16.77;7.57;;;7.00;99.90;;;;;;5068151;28;20029;-45
2022/04/22 05:40:37;;;;;;;15.45;7.85;;;7.10;99.90;;;;;;5068463;28;20397;-45
2022/04/22 05:43:04;;;;;;;17.50;7.88;;;7.20;99.90;;;;;;5067576;28;20020;-45
2022/04/22 05:45:30;;;;;;;15.25;7.68;;;7.10;99.90;;;;;;5068309;28;20035;-47
2022/04/22 05:47:59;;;;;;;22.90;8.77;;;7.10;99.90;;;;;;5068085;28;20394;-44
2022/04/22 05:50:26;;;;;;;21.48;9.13;;;7.10;99.90;;;;;;5068149;28;20101;-45
2022/04/22 05:52:52;;;;;;;17.90;9.32;;;7.10;99.90;;;;;;5067122;28;20017;-45
2022/04/22 05:55:20;;;;;;;21.00;8.98;;;7.00;99.90;;;;;;5070247;28;20025;-45
2022/04/22 05:57:46;;;;;;;17.80;9.05;;;7.10;99.90;;;;;;5068045;28;20029;-45
2022/04/22 06:00:15;;;;;;;21.98;10.30;;;7.10;99.90;;;;;;5066587;28;20031;-47
2022/04/22 06:02:42;;;;;;;17.33;9.48;;;7.20;99.90;;;;;;5067128;28;20139;-45
2022/04/22 06:05:12;;;;;;;15.30;8.82;;;7.10;99.90;;;;;;5067823;28;20025;-45
2022/04/22 06:07:38;;;;;;;22.63;11.10;;;7.10;99.90;;;;;;5068019;28;20484;-46
2022/04/22 06:12:50;;;;;;;19.27;9.32;;;7.00;99.90;;;;;;5055487;28;20130;-45
2022/04/22 06:15:15;;;;;;;18.98;10.35;;;7.10;99.90;;;;;;5060249;28;20059;-45
2022/04/22 06:17:41;;;;;;;21.42;10.27;;;7.10;99.90;;;;;;5071485;28;20032;-45
2022/04/22 06:20:07;;;;;;;17.58;9.98;;;7.20;99.90;;;;;;5071454;28;20033;-45
2022/04/22 06:22:33;;;;;;;24.08;11.13;;;7.30;99.90;;;;;;5065341;28;20181;-45
2022/04/22 06:24:58;;;;;;;19.27;11.93;;;7.30;99.90;;;;;;5083320;28;20528;-46
2022/04/22 06:27:34;;;;;;;18.15;10.80;;;7.30;99.90;;;;;;5091709;28;20102;-46
2022/04/22 06:30:07;;;;;;;24.38;11.90;;;7.30;99.90;;;;;;5074038;28;20094;-45
2022/04/22 06:32:34;;;;;;;25.80;12.63;;;7.30;99.90;;;;;;5060963;28;20501;-46
2022/04/22 06:35:00;;;;;;;25.10;12.80;;;7.30;99.90;;;;;;5058662;28;20021;-44
2022/04/22 06:37:25;;;;;;;21.30;11.35;;;7.30;99.90;;;;;;5060022;28;20477;-45
2022/04/22 06:48:05;;;;;;;21.40;12.27;;;7.40;99.90;;;;;;5060216;28;20067;-46
2022/04/22 06:50:31;;;;;;;28.58;12.93;;;7.40;99.90;;;;;;5059921;28;20023;-45
2022/04/22 06:52:57;;;;;;;23.88;11.93;;;7.40;99.90;;;;;;5057320;28;20066;-47
2022/04/22 06:55:24;;;;;;;26.10;13.07;;;7.50;99.90;;;;;;5059921;28;20025;-45
2022/04/22 06:57:50;;;;;;;24.05;13.00;;;7.50;99.90;;;;;;5056052;28;20013;-46
2022/04/22 07:00:17;;;;;;;25.50;12.70;;;7.50;99.90;;;;;;5059077;28;20041;-46
2022/04/22 07:02:43;;;;;;;21.20;12.65;;;7.60;99.90;;;;;;5061687;28;20021;-47
2022/04/22 07:05:09;;;;;;;28.55;12.88;;;7.70;99.90;;;;;;5060065;28;20025;-44
2022/04/22 07:07:35;;;;;;;31.60;13.50;;;7.70;99.90;;;;;;5060954;28;20024;-44
2022/04/22 07:10:01;;;;;;;22.25;13.30;;;7.70;99.90;;;;;;5058346;28;20413;-44
2022/04/22 07:12:28;;;;;;;24.50;13.57;;;7.80;99.90;;;;;;5061651;28;20654;-44
2022/04/22 07:15:07;;;;;;;20.95;13.35;;;7.70;99.90;;;;;;5059500;28;20393;-44
2022/04/22 07:17:34;;;;;;;24.83;14.10;;;7.80;99.90;;;;;;5061356;28;20021;-45
2022/04/22 07:20:10;;;;;;;21.60;13.05;;;7.80;99.90;;;;;;5056844;28;20017;-44
2022/04/22 07:22:40;;;;;;;24.73;14.23;;;7.80;99.90;;;;;;5059091;28;20039;-44
2022/04/22 07:25:07;;;;;;;21.77;14.07;;;7.90;99.90;;;;;;5059714;28;20024;-44
2022/04/22 07:27:41;;;;;;;27.20;14.57;;;8.00;99.90;;;;;;5056670;28;20107;-44
2022/04/22 07:30:18;;;;;;;22.48;13.80;;;8.20;99.90;;;;;;5061827;28;20402;-44
2022/04/22 07:32:46;;;;;;;21.63;13.80;;;8.30;99.90;;;;;;5059095;28;20048;-44
2022/04/22 07:35:12;;;;;;;24.95;14.73;;;8.20;99.90;;;;;;5060550;28;20028;-45
2022/04/22 07:37:41;;;;;;;27.33;14.23;;;8.30;99.90;;;;;;5058399;28;20394;-45
2022/04/22 07:40:08;;;;;;;24.60;13.85;;;8.30;99.90;;;;;;5059774;28;20394;-47
2022/04/22 07:42:34;;;;;;;24.25;14.55;;;8.40;99.90;;;;;;5057534;28;20017;-45
2022/04/22 07:47:47;;;;;;;33.05;16.55;;;8.60;99.90;;;;;;5064682;28;20547;-45
2022/04/22 07:50:14;;;;;;;30.05;14.98;;;8.50;99.90;;;;;;5058118;28;20645;-46
2022/04/22 07:52:40;;;;;;;29.00;15.70;;;8.50;99.90;;;;;;5058934;28;20454;-45
2022/04/22 07:55:06;;;;;;;75.43;41.88;;;8.50;99.90;;;;;;5063481;28;20013;-45
2022/04/22 07:57:32;;;;;;;65.53;36.00;;;8.60;99.90;;;;;;5058606;28;20493;-45
2022/04/22 07:59:57;;;;;;;31.17;19.10;;;8.60;99.90;;;;;;5057830;28;20028;-45
2022/04/22 08:02:24;;;;;;;26.92;16.92;;;8.70;99.90;;;;;;5061793;28;20496;-45
2022/04/22 08:04:50;;;;;;;28.25;18.38;;;8.90;99.90;;;;;;5066456;28;20020;-45
2022/04/22 08:07:18;;;;;;;33.33;18.30;;;8.80;99.90;;;;;;5053821;28;20086;-46
2022/04/22 08:09:45;;;;;;;32.15;18.52;;;8.80;99.90;;;;;;5050466;28;20024;-46
2022/04/22 08:12:12;;;;;;;31.83;20.23;;;9.00;99.90;;;;;;5052046;28;20057;-46
2022/04/22 08:14:38;;;;;;;31.95;20.48;;;9.10;99.90;;;;;;5049979;28;20460;-46
2022/04/22 08:17:03;;;;;;;30.65;19.27;;;9.40;99.90;;;;;;5057060;28;20029;-45
2022/04/22 08:19:29;;;;;;;27.95;18.92;;;9.60;99.90;;;;;;5054382;28;20032;-46
2022/04/22 08:21:55;;;;;;;202.15;121.80;;;9.80;99.90;;;;;;5059175;28;20115;-45
2022/04/22 08:24:20;;;;;;;115.47;62.45;;;9.80;99.90;;;;;;5061861;28;20029;-45
2022/04/22 08:26:46;;;;;;;36.67;22.27;;;9.80;99.90;;;;;;5058474;28;20064;-45
2022/04/22 08:29:12;;;;;;;33.33;21.95;;;9.90;99.90;;;;;;5058988;28;20256;-44
2022/04/22 08:31:37;;;;;;;35.40;21.70;;;9.90;99.90;;;;;;5056871;28;20025;-45
2022/04/22 08:34:03;;;;;;;25.77;19.63;;;10.00;99.90;;;;;;5059264;28;20040;-44
2022/04/22 08:36:30;;;;;;;34.22;21.08;;;10.00;99.90;;;;;;5059712;28;20362;-44
2022/04/22 08:39:00;;;;;;;35.05;20.25;;;10.00;99.90;;;;;;5057473;28;20054;-45
2022/04/22 08:41:26;;;;;;;36.13;21.80;;;10.10;99.90;;;;;;5057198;28;20032;-44
2022/04/22 08:43:56;;;;;;;33.50;21.02;;;10.40;99.90;;;;;;5056268;28;20265;-44
2022/04/22 08:51:56;;;;;;;24.55;18.23;;;13.10;99.90;;;;;;5054450;28;20024;-44
2022/04/22 08:54:26;;;;;;;20.60;15.50;;;14.10;99.90;;;;;;5062237;28;20016;-44
2022/04/22 08:56:52;;;;;;;20.38;12.82;;;15.40;99.90;;;;;;5056969;28;20108;-44
2022/04/22 08:59:18;;;;;;;18.60;12.95;;;16.50;99.90;;;;;;5058383;28;20357;-45
2022/04/22 09:01:43;;;;;;;18.00;12.75;;;18.00;94.70;;;;;;5058764;28;20111;-45
2022/04/22 09:04:09;;;;;;;21.30;13.63;;;17.90;92.20;;;;;;5058232;28;20021;-45
2022/04/22 09:06:35;;;;;;;15.48;12.73;;;17.60;92.20;;;;;;5057530;28;20025;-44
2022/04/22 09:09:02;;;;;;;16.80;12.35;;;17.30;91.80;;;;;;5059124;28;20494;-44
2022/04/22 09:11:29;;;;;;;14.25;11.30;;;16.70;93.50;;;;;;5057854;28;20024;-44
2022/04/22 09:13:55;;;;;;;19.08;12.90;;;16.50;93.30;;;;;;5057266;28;20024;-44
2022/04/22 09:16:21;;;;;;;17.10;11.63;;;16.20;93.80;;;;;;5062907;28;20032;-45
2022/04/22 09:18:47;;;;;;;17.23;11.75;;;15.80;93.40;;;;;;5055369;28;20029;-45
2022/04/22 09:21:17;;;;;;;18.15;11.30;;;15.50;95.80;;;;;;5054717;28;20031;-45
2022/04/22 09:23:42;;;;;;;16.25;9.93;;;15.70;96.80;;;;;;5058166;28;20492;-46
2022/04/22 09:26:22;;;;;;;16.42;10.63;;;16.70;96.40;;;;;;5059740;28;20016;-45
2022/04/22 09:29:10;;;;;;;11.65;8.77;;;17.90;93.20;;;;;;5057794;28;20024;-45
2022/04/22 09:31:47;;;;;;;12.88;7.85;;;18.60;90.40;;;;;;5058436;28;20017;-46
2022/04/22 09:34:13;;;;;;;10.50;8.10;;;18.70;89.20;;;;;;5058815;28;20021;-45
2022/04/22 09:45:04;;;;;;;15.80;10.70;;;17.70;87.70;;;;;;5059198;28;20097;-38
2022/04/22 09:47:32;;;;;;;14.27;10.20;;;17.20;88.30;;;;;;5057801;28;20509;-39
2022/04/22 09:49:58;;;;;;;18.65;9.45;;;16.70;91.20;;;;;;5056287;28;20021;-37
2022/04/22 09:52:28;;;;;;;11.93;8.55;;;16.50;91.50;;;;;;5059232;28;20059;-37
2022/04/22 09:54:59;;;;;;;15.60;9.27;;;16.60;91.20;;;;;;5063624;28;20401;-37
2022/04/22 09:57:25;;;;;;;16.08;7.65;;;17.10;91.80;;;;;;5059503;28;20290;-40
2022/04/22 09:59:52;;;;;;;13.88;7.88;;;18.80;90.80;;;;;;5061181;28;20027;-37
2022/04/22 10:02:24;;;;;;;12.35;7.15;;;20.20;86.10;;;;;;5061030;28;20104;-40
2022/04/22 10:04:52;;;;;;;12.00;7.60;;;22.30;78.00;;;;;;5060491;28;20032;-40
2022/04/22 10:07:18;;;;;;;7.63;5.93;;;23.50;72.20;;;;;;5061744;28;20115;-39
2022/04/22 10:09:49;;;;;;;12.90;7.95;;;23.60;68.40;;;;;;5061201;28;20510;-40
2022/04/22 10:12:18;;;;;;;13.68;7.55;;;22.00;67.90;;;;;;5057487;28;20044;-38
2022/04/22 10:14:45;;;;;;;8.77;6.10;;;21.00;70.40;;;;;;5061460;28;20044;-38
2022/04/22 10:17:11;;;;;;;12.30;7.63;;;20.20;73.20;;;;;;5061796;28;20036;-38
2022/04/22 10:19:37;;;;;;;11.68;7.13;;;19.60;74.00;;;;;;5057813;28;20043;-37
2022/04/22 10:22:04;;;;;;;13.70;9.15;;;18.70;77.30;;;;;;5061096;28;20017;-37
2022/04/22 10:24:31;;;;;;;13.55;8.75;;;18.00;79.70;;;;;;5067848;28;20405;-47
2022/04/22 10:26:59;;;;;;;13.40;8.60;;;17.50;83.20;;;;;;5059623;28;20036;-45
2022/04/22 10:29:25;;;;;;;15.52;10.35;;;17.10;85.40;;;;;;5062026;28;20534;-43
2022/04/22 10:31:51;;;;;;;16.55;8.32;;;16.90;86.10;;;;;;5059585;28;20791;-47
2022/04/22 10:34:17;;;;;;;14.18;8.77;;;16.80;88.90;;;;;;5060313;28;20040;-46
2022/04/22 10:36:43;;;;;;;16.45;8.35;;;17.00;87.10;;;;;;5062139;28;20032;-45
2022/04/22 10:39:09;;;;;;;12.77;7.38;;;17.90;90.00;;;;;;5057770;28;20032;-46
2022/04/22 10:41:45;;;;;;;10.18;7.80;;;18.60;83.00;;;;;;5054694;28;20029;-45
2022/04/22 10:47:14;;;;;;;12.55;7.18;;;20.10;81.30;;;;;;5062800;28;20052;-45
2022/04/22 10:49:46;;;;;;;13.73;8.25;;;21.70;79.10;;;;;;5061725;28;20398;-44
2022/04/22 10:52:14;;;;;;;11.82;6.78;;;22.90;70.00;;;;;;5057632;28;20069;-47
2022/04/22 10:54:52;;;;;;;15.75;7.68;;;23.90;67.50;;;;;;5066172;28;20020;-45
2022/04/22 10:57:23;;;;;;;9.90;6.82;;;24.60;63.20;;;;;;5060614;28;20040;-45
2022/04/22 11:00:15;;;;;;;11.52;6.10;;;23.70;65.50;;;;;;5058520;28;20400;-47
2022/04/22 11:02:41;;;;;;;11.90;7.65;;;24.60;64.30;;;;;;5061688;28;20101;-46
2022/04/22 11:05:19;;;;;;;9.43;6.20;;;25.10;62.30;;;;;;5066539;28;20024;-45
2022/04/22 11:07:50;;;;;;;9.13;6.03;;;26.00;59.30;;;;;;5066437;28;20024;-46
2022/04/22 11:10:20;;;;;;;8.32;6.28;;;26.70;57.70;;;;;;5061022;28;20074;-45
2022/04/22 11:12:59;;;;;;;8.55;6.60;;;27.10;56.80;;;;;;5055134;28;20024;-45
2022/04/22 11:15:42;;;;;;;8.38;5.50;;;26.10;54.40;;;;;;5059755;28;20326;-45
2022/04/22 11:18:16;;;;;;;8.77;5.50;;;25.50;56.90;;;;;;5057520;28;20110;-45
2022/04/22 11:21:06;;;;;;;10.23;6.45;;;25.30;56.90;;;;;;5056114;28;20469;-46
2022/04/22 11:23:40;;;;;;;9.27;6.45;;;25.70;56.40;;;;;;5038066;28;20371;-45
2022/04/22 11:26:07;;;;;;;9.75;6.60;;;25.00;56.10;;;;;;5082167;28;20169;-45
2022/04/22 11:28:40;;;;;;;12.15;6.50;;;24.20;56.10;;;;;;5089332;28;20028;-45
2022/04/22 11:31:07;;;;;;;12.10;7.45;;;23.10;58.30;;;;;;5081313;28;20126;-45
2022/04/22 11:33:54;;;;;;;9.85;5.80;;;21.90;59.20;;;;;;5057786;28;20067;-45
2022/04/22 11:36:20;;;;;;;7.10;5.95;;;21.20;61.80;;;;;;5057722;28;20508;-44
2022/04/22 11:38:48;;;;;;;12.75;7.63;;;21.60;62.10;;;;;;5059474;28;20029;-45
2022/04/22 11:41:14;;;;;;;8.43;6.75;;;21.30;62.00;;;;;;5060887;28;20021;-45
2022/04/22 11:43:40;;;;;;;15.27;6.50;;;20.70;63.60;;;;;;5058121;28;20021;-45
2022/04/22 11:46:05;;;;;;;10.00;6.03;;;20.80;62.50;;;;;;5059517;28;20032;-47
2022/04/22 11:48:31;;;;;;;10.55;6.00;;;20.40;63.80;;;;;;5059627;28;20032;-46
2022/04/22 11:51:01;;;;;;;11.73;6.30;;;20.30;63.70;;;;;;5058397;28;20413;-43
2022/04/22 11:53:29;;;;;;;12.63;6.50;;;20.10;64.40;;;;;;5063956;28;20020;-46
2022/04/22 11:55:54;;;;;;;9.35;5.90;;;19.70;65.30;;;;;;5058178;28;20021;-46
2022/04/22 11:58:24;;;;;;;9.25;5.85;;;19.80;68.00;;;;;;5059502;28;20047;-46
2022/04/22 12:06:21;;;;;;;9.55;5.15;;;23.10;61.50;;;;;;5059902;28;20031;-48
2022/04/22 12:08:53;;;;;;;8.18;4.88;;;23.80;58.90;;;;;;5060345;28;20048;-49
2022/04/22 12:11:19;;;;;;;10.00;4.60;;;23.10;58.10;;;;;;5055967;28;20103;-46
2022/04/22 12:13:49;;;;;;;7.50;4.93;;;22.50;60.50;;;;;;5053586;28;20359;-49
2022/04/22 12:16:28;;;;;;;6.73;4.47;;;21.50;60.40;;;;;;5051706;28;20120;-48
2022/04/22 12:18:55;;;;;;;7.47;4.40;;;20.80;63.40;;;;;;5050208;28;20021;-46
2022/04/22 12:21:21;;;;;;;8.10;3.88;;;20.10;64.90;;;;;;5061485;28;20032;-46
2022/04/22 12:23:49;;;;;;;6.13;3.13;;;19.60;64.20;;;;;;5057083;28;20028;-45
2022/04/22 12:26:20;;;;;;;4.47;3.33;;;19.40;64.30;;;;;;5060267;28;20430;-46
2022/04/22 12:29:09;;;;;;;6.00;3.28;;;19.20;64.40;;;;;;5062028;28;20066;-46
2022/04/22 12:31:38;;;;;;;3.55;3.00;;;19.10;63.70;;;;;;5053896;28;20053;-46
2022/04/22 12:34:04;;;;;;;6.22;3.67;;;19.10;65.30;;;;;;5059617;28;20056;-49
2022/04/22 12:36:37;;;;;;;6.50;3.28;;;18.90;64.60;;;;;;5057836;28;20516;-46
2022/04/22 12:39:08;;;;;;;6.57;3.67;;;18.60;66.10;;;;;;5057288;28;20036;-49
2022/04/22 12:41:52;;;;;;;7.68;4.22;;;18.40;66.70;;;;;;5057876;28;20032;-46
2022/04/22 12:44:17;;;;;;;6.57;4.28;;;17.90;66.50;;;;;;5057276;28;20063;-46
2022/04/22 12:52:23;;;;;;;9.63;4.57;;;17.30;67.70;;;;;;5057701;28;20047;-46
2022/04/22 12:54:49;;;;;;;6.50;4.10;;;17.10;69.30;;;;;;5060751;28;20321;-46
2022/04/22 12:57:22;;;;;;;8.63;4.80;;;16.80;70.40;;;;;;5058726;28;20029;-46
2022/04/22 12:59:54;;;;;;;8.45;4.47;;;16.80;71.60;;;;;;5058733;28;20029;-46
2022/04/22 13:02:29;;;;;;;7.65;5.07;;;16.70;72.20;;;;;;5057693;28;20036;-51
2022/04/22 13:04:54;;;;;;;6.80;4.20;;;16.60;73.20;;;;;;5056624;28;20425;-45
2022/04/22 13:07:21;;;;;;;7.82;4.85;;;16.50;74.10;;;;;;5058543;28;20087;-46
2022/04/22 13:09:47;;;;;;;7.72;5.18;;;16.50;74.30;;;;;;5057463;28;20020;-46
2022/04/22 13:12:13;;;;;;;7.00;5.55;;;16.40;75.80;;;;;;5056781;28;20094;-46
2022/04/22 13:14:40;;;;;;;11.07;6.25;;;16.50;77.50;;;;;;5058536;28;20033;-45
2022/04/22 13:17:06;;;;;;;8.68;5.45;;;16.60;76.20;;;;;;5057063;28;20410;-45
2022/04/22 13:19:32;;;;;;;5.80;4.50;;;16.70;75.20;;;;;;5059892;28;20074;-46
2022/04/22 13:22:00;;;;;;;10.88;5.03;;;16.90;74.70;;;;;;5057628;28;20386;-45
2022/04/22 13:24:26;;;;;;;8.05;4.82;;;17.20;74.50;;;;;;5069593;28;20492;-46
2022/04/22 13:26:53;;;;;;;5.05;4.00;;;17.70;72.10;;;;;;5062839;28;20071;-46
2022/04/22 13:29:19;;;;;;;10.93;5.20;;;18.30;71.70;;;;;;5062803;28;20017;-46
2022/04/22 13:31:44;;;;;;;7.05;4.78;;;18.80;71.20;;;;;;5060573;28;20017;-48
2022/04/22 13:34:10;;;;;;;7.93;5.30;;;19.40;71.60;;;;;;5063176;28;20381;-46
2022/04/22 13:36:35;;;;;;;4.93;4.45;;;19.90;69.50;;;;;;5061897;28;20025;-49
2022/04/22 13:39:01;;;;;;;8.90;5.03;;;19.80;67.60;;;;;;5055800;28;20036;-45
2022/04/22 13:41:26;;;;;;;7.35;5.22;;;19.40;67.70;;;;;;5052136;28;20482;-46
2022/04/22 13:43:52;;;;;;;9.50;5.60;;;18.90;69.20;;;;;;5050441;28;20040;-46
2022/04/22 13:54:29;;;;;;;8.77;5.22;;;18.20;71.10;;;;;;5062132;28;20079;-47
2022/04/22 13:56:55;;;;;;;10.30;5.35;;;17.90;71.30;;;;;;5060073;28;20271;-47
2022/04/22 13:59:21;;;;;;;9.48;6.20;;;17.60;73.50;;;;;;5058843;28;20437;-46
2022/04/22 14:01:46;;;;;;;9.52;5.70;;;17.30;73.50;;;;;;5058044;28;20078;-46
2022/04/22 14:04:12;;;;;;;8.27;6.22;;;17.00;74.40;;;;;;5060981;28;20477;-46
2022/04/22 14:06:37;;;;;;;9.23;6.32;;;16.70;74.60;;;;;;5058248;28;20017;-46